sensor_id;sensor_type;location;lat;lon;timestamp;P1;durP1;ratioP1;P2;durP2;ratioP2
74799;SDS011;63326;45.088;7.658;2022-12-29T00:01:47;7.90;;;4.93;;
74799;SDS011;63326;45.088;7.658;2022-12-29T00:04:14;11.55;;;5.68;;
74799;SDS011;63326;45.088;7.658;2022-12-29T00:06:42;8.20;;;7.05;;
74799;SDS011;63326;45.088;7.658;2022-12-29T00:09:12;10.80;;;6.03;;
74799;SDS011;63326;45.088;7.658;2022-12-29T00:11:39;9.75;;;5.70;;
74799;SDS011;63326;45.088;7.658;2022-12-29T00:14:08;7.30;;;5.03;;
74799;SDS011;63326;45.088;7.658;2022-12-29T00:16:54;10.25;;;5.05;;
74799;SDS011;63326;45.088;7.658;2022-12-29T00:19:21;8.20;;;5.63;;
74799;SDS011;63326;45.088;7.658;2022-12-29T00:22:08;8.05;;;4.68;;
74799;SDS011;63326;45.088;7.658;2022-12-29T00:24:55;10.18;;;6.10;;
74799;SDS011;63326;45.088;7.658;2022-12-29T00:27:40;7.68;;;5.70;;
74799;SDS011;63326;45.088;7.658;2022-12-29T00:30:32;6.55;;;4.95;;
74799;SDS011;63326;45.088;7.658;2022-12-29T00:33:19;11.93;;;5.68;;
74799;SDS011;63326;45.088;7.658;2022-12-29T00:38:57;10.07;;;6.95;;
74799;SDS011;63326;45.088;7.658;2022-12-29T00:41:45;8.02;;;5.13;;
74799;SDS011;63326;45.088;7.658;2022-12-29T00:44:30;8.35;;;4.93;;
74799;SDS011;63326;45.088;7.658;2022-12-29T00:46:57;11.32;;;5.53;;
74799;SDS011;63326;45.088;7.658;2022-12-29T00:49:24;6.03;;;4.20;;
74799;SDS011;63326;45.088;7.658;2022-12-29T00:51:57;9.02;;;5.32;;
74799;SDS011;63326;45.088;7.658;2022-12-29T00:54:24;10.65;;;5.70;;
74799;SDS011;63326;45.088;7.658;2022-12-29T00:56:51;6.10;;;4.88;;
74799;SDS011;63326;45.088;7.658;2022-12-29T00:59:19;11.23;;;5.32;;
74799;SDS011;63326;45.088;7.658;2022-12-29T01:01:46;9.40;;;6.65;;
74799;SDS011;63326;45.088;7.658;2022-12-29T01:04:14;8.70;;;5.43;;
74799;SDS011;63326;45.088;7.658;2022-12-29T01:06:40;7.03;;;5.97;;
74799;SDS011;63326;45.088;7.658;2022-12-29T01:09:08;9.95;;;4.85;;
74799;SDS011;63326;45.088;7.658;2022-12-29T01:11:54;7.60;;;5.47;;
74799;SDS011;63326;45.088;7.658;2022-12-29T01:14:21;13.27;;;4.43;;
74799;SDS011;63326;45.088;7.658;2022-12-29T01:16:49;12.23;;;5.47;;
74799;SDS011;63326;45.088;7.658;2022-12-29T01:19:16;9.25;;;5.25;;
74799;SDS011;63326;45.088;7.658;2022-12-29T01:21:43;12.07;;;4.78;;
74799;SDS011;63326;45.088;7.658;2022-12-29T01:24:11;6.45;;;5.18;;
74799;SDS011;63326;45.088;7.658;2022-12-29T01:26:38;7.93;;;4.10;;
74799;SDS011;63326;45.088;7.658;2022-12-29T01:29:05;8.85;;;4.40;;
74799;SDS011;63326;45.088;7.658;2022-12-29T01:31:32;9.20;;;4.93;;
74799;SDS011;63326;45.088;7.658;2022-12-29T01:33:59;11.95;;;5.75;;
74799;SDS011;63326;45.088;7.658;2022-12-29T01:36:26;9.02;;;5.35;;
74799;SDS011;63326;45.088;7.658;2022-12-29T01:38:52;10.52;;;4.18;;
74799;SDS011;63326;45.088;7.658;2022-12-29T01:41:19;5.38;;;3.33;;
74799;SDS011;63326;45.088;7.658;2022-12-29T01:43:48;10.98;;;6.07;;
74799;SDS011;63326;45.088;7.658;2022-12-29T01:48:47;9.27;;;5.03;;
74799;SDS011;63326;45.088;7.658;2022-12-29T01:51:15;12.18;;;6.88;;
74799;SDS011;63326;45.088;7.658;2022-12-29T01:53:43;7.68;;;6.57;;
74799;SDS011;63326;45.088;7.658;2022-12-29T01:56:11;8.60;;;6.05;;
74799;SDS011;63326;45.088;7.658;2022-12-29T01:58:43;10.75;;;5.30;;
74799;SDS011;63326;45.088;7.658;2022-12-29T02:01:15;7.57;;;5.18;;
74799;SDS011;63326;45.088;7.658;2022-12-29T02:03:45;8.00;;;4.20;;
74799;SDS011;63326;45.088;7.658;2022-12-29T02:06:22;9.80;;;4.50;;
74799;SDS011;63326;45.088;7.658;2022-12-29T02:08:53;6.95;;;4.57;;
74799;SDS011;63326;45.088;7.658;2022-12-29T02:11:23;6.28;;;4.25;;
74799;SDS011;63326;45.088;7.658;2022-12-29T02:13:52;7.55;;;5.30;;
74799;SDS011;63326;45.088;7.658;2022-12-29T02:22:04;7.28;;;5.05;;
74799;SDS011;63326;45.088;7.658;2022-12-29T02:27:55;10.18;;;5.72;;
74799;SDS011;63326;45.088;7.658;2022-12-29T02:36:09;5.38;;;3.83;;
74799;SDS011;63326;45.088;7.658;2022-12-29T02:42:08;5.47;;;3.92;;
74799;SDS011;63326;45.088;7.658;2022-12-29T02:47:39;7.80;;;3.40;;
74799;SDS011;63326;45.088;7.658;2022-12-29T02:50:19;9.63;;;5.05;;
74799;SDS011;63326;45.088;7.658;2022-12-29T02:52:50;6.63;;;4.07;;
74799;SDS011;63326;45.088;7.658;2022-12-29T02:55:21;5.22;;;3.92;;
74799;SDS011;63326;45.088;7.658;2022-12-29T02:57:48;6.55;;;3.60;;
74799;SDS011;63326;45.088;7.658;2022-12-29T03:00:30;5.30;;;3.60;;
74799;SDS011;63326;45.088;7.658;2022-12-29T03:06:07;11.70;;;5.20;;
74799;SDS011;63326;45.088;7.658;2022-12-29T03:08:56;5.70;;;3.10;;
74799;SDS011;63326;45.088;7.658;2022-12-29T03:17:57;4.38;;;2.45;;
74799;SDS011;63326;45.088;7.658;2022-12-29T03:20:31;4.78;;;3.05;;
74799;SDS011;63326;45.088;7.658;2022-12-29T03:23:11;5.32;;;2.97;;
74799;SDS011;63326;45.088;7.658;2022-12-29T03:25:41;8.00;;;4.57;;
74799;SDS011;63326;45.088;7.658;2022-12-29T03:28:13;13.02;;;3.58;;
74799;SDS011;63326;45.088;7.658;2022-12-29T03:30:47;5.00;;;3.40;;
74799;SDS011;63326;45.088;7.658;2022-12-29T03:33:18;8.65;;;4.13;;
74799;SDS011;63326;45.088;7.658;2022-12-29T03:35:50;5.90;;;4.20;;
74799;SDS011;63326;45.088;7.658;2022-12-29T03:38:25;5.45;;;4.25;;
74799;SDS011;63326;45.088;7.658;2022-12-29T03:40:55;4.05;;;2.92;;
74799;SDS011;63326;45.088;7.658;2022-12-29T03:43:26;5.93;;;3.78;;
74799;SDS011;63326;45.088;7.658;2022-12-29T03:50:49;7.38;;;2.05;;
74799;SDS011;63326;45.088;7.658;2022-12-29T03:53:17;7.00;;;4.70;;
74799;SDS011;63326;45.088;7.658;2022-12-29T03:55:44;8.30;;;3.67;;
74799;SDS011;63326;45.088;7.658;2022-12-29T03:58:11;7.15;;;2.97;;
74799;SDS011;63326;45.088;7.658;2022-12-29T04:00:54;3.95;;;2.22;;
74799;SDS011;63326;45.088;7.658;2022-12-29T04:03:21;5.70;;;3.80;;
74799;SDS011;63326;45.088;7.658;2022-12-29T04:05:49;6.53;;;4.63;;
74799;SDS011;63326;45.088;7.658;2022-12-29T04:08:16;7.07;;;3.67;;
74799;SDS011;63326;45.088;7.658;2022-12-29T04:10:43;7.90;;;3.88;;
74799;SDS011;63326;45.088;7.658;2022-12-29T04:13:12;6.47;;;3.90;;
74799;SDS011;63326;45.088;7.658;2022-12-29T04:15:39;8.68;;;3.30;;
74799;SDS011;63326;45.088;7.658;2022-12-29T04:18:06;6.63;;;3.83;;
74799;SDS011;63326;45.088;7.658;2022-12-29T04:20:33;5.57;;;3.75;;
74799;SDS011;63326;45.088;7.658;2022-12-29T04:23:18;4.82;;;3.17;;
74799;SDS011;63326;45.088;7.658;2022-12-29T04:25:45;5.78;;;2.47;;
74799;SDS011;63326;45.088;7.658;2022-12-29T04:28:16;5.88;;;2.55;;
74799;SDS011;63326;45.088;7.658;2022-12-29T04:30:52;4.10;;;3.33;;
74799;SDS011;63326;45.088;7.658;2022-12-29T04:33:23;9.38;;;3.30;;
74799;SDS011;63326;45.088;7.658;2022-12-29T04:35:52;4.30;;;2.75;;
74799;SDS011;63326;45.088;7.658;2022-12-29T04:38:40;3.05;;;2.55;;
74799;SDS011;63326;45.088;7.658;2022-12-29T04:41:08;3.45;;;2.45;;
74799;SDS011;63326;45.088;7.658;2022-12-29T04:43:37;5.18;;;3.72;;
74799;SDS011;63326;45.088;7.658;2022-12-29T04:46:22;9.15;;;3.15;;
74799;SDS011;63326;45.088;7.658;2022-12-29T04:48:55;6.35;;;3.17;;
74799;SDS011;63326;45.088;7.658;2022-12-29T04:51:46;4.95;;;3.38;;
74799;SDS011;63326;45.088;7.658;2022-12-29T04:54:14;3.38;;;2.42;;
74799;SDS011;63326;45.088;7.658;2022-12-29T04:56:44;12.55;;;2.85;;
74799;SDS011;63326;45.088;7.658;2022-12-29T04:59:14;3.42;;;2.05;;
74799;SDS011;63326;45.088;7.658;2022-12-29T05:01:43;3.38;;;2.38;;
74799;SDS011;63326;45.088;7.658;2022-12-29T05:04:10;6.63;;;2.47;;
74799;SDS011;63326;45.088;7.658;2022-12-29T05:06:37;4.38;;;2.35;;
74799;SDS011;63326;45.088;7.658;2022-12-29T05:09:04;6.55;;;3.35;;
74799;SDS011;63326;45.088;7.658;2022-12-29T05:11:31;2.42;;;1.67;;
74799;SDS011;63326;45.088;7.658;2022-12-29T05:13:59;4.90;;;2.55;;
74799;SDS011;63326;45.088;7.658;2022-12-29T05:16:26;4.97;;;2.53;;
74799;SDS011;63326;45.088;7.658;2022-12-29T05:18:53;4.30;;;1.85;;
74799;SDS011;63326;45.088;7.658;2022-12-29T05:21:20;2.78;;;2.33;;
74799;SDS011;63326;45.088;7.658;2022-12-29T05:23:47;4.10;;;2.85;;
74799;SDS011;63326;45.088;7.658;2022-12-29T05:26:15;4.10;;;2.92;;
74799;SDS011;63326;45.088;7.658;2022-12-29T05:28:53;2.58;;;2.05;;
74799;SDS011;63326;45.088;7.658;2022-12-29T05:31:21;4.00;;;2.70;;
74799;SDS011;63326;45.088;7.658;2022-12-29T05:33:48;3.28;;;2.80;;
74799;SDS011;63326;45.088;7.658;2022-12-29T05:36:14;3.70;;;2.58;;
74799;SDS011;63326;45.088;7.658;2022-12-29T05:38:46;4.75;;;2.25;;
74799;SDS011;63326;45.088;7.658;2022-12-29T05:41:13;4.50;;;2.15;;
74799;SDS011;63326;45.088;7.658;2022-12-29T05:43:48;3.67;;;2.28;;
74799;SDS011;63326;45.088;7.658;2022-12-29T05:46:34;2.30;;;1.80;;
74799;SDS011;63326;45.088;7.658;2022-12-29T05:49:16;7.22;;;2.60;;
74799;SDS011;63326;45.088;7.658;2022-12-29T05:52:06;2.63;;;1.67;;
74799;SDS011;63326;45.088;7.658;2022-12-29T05:54:33;4.70;;;3.10;;
74799;SDS011;63326;45.088;7.658;2022-12-29T05:57:02;3.40;;;2.65;;
74799;SDS011;63326;45.088;7.658;2022-12-29T05:59:32;7.55;;;3.60;;
74799;SDS011;63326;45.088;7.658;2022-12-29T06:01:59;2.28;;;1.73;;
74799;SDS011;63326;45.088;7.658;2022-12-29T06:04:27;4.75;;;3.38;;
74799;SDS011;63326;45.088;7.658;2022-12-29T06:06:54;8.20;;;2.92;;
74799;SDS011;63326;45.088;7.658;2022-12-29T06:09:29;2.63;;;1.83;;
74799;SDS011;63326;45.088;7.658;2022-12-29T06:11:55;5.25;;;3.00;;
74799;SDS011;63326;45.088;7.658;2022-12-29T06:14:22;2.33;;;1.80;;
74799;SDS011;63326;45.088;7.658;2022-12-29T06:16:49;6.97;;;3.78;;
74799;SDS011;63326;45.088;7.658;2022-12-29T06:19:16;3.70;;;2.33;;
74799;SDS011;63326;45.088;7.658;2022-12-29T06:21:43;3.58;;;2.53;;
74799;SDS011;63326;45.088;7.658;2022-12-29T06:24:10;2.70;;;2.33;;
74799;SDS011;63326;45.088;7.658;2022-12-29T06:26:37;2.80;;;1.80;;
74799;SDS011;63326;45.088;7.658;2022-12-29T06:29:05;4.00;;;2.45;;
74799;SDS011;63326;45.088;7.658;2022-12-29T06:31:33;4.05;;;2.90;;
74799;SDS011;63326;45.088;7.658;2022-12-29T06:34:00;8.23;;;4.28;;
74799;SDS011;63326;45.088;7.658;2022-12-29T06:36:33;5.63;;;3.95;;
74799;SDS011;63326;45.088;7.658;2022-12-29T06:39:00;4.40;;;2.42;;
74799;SDS011;63326;45.088;7.658;2022-12-29T06:41:27;5.85;;;3.22;;
74799;SDS011;63326;45.088;7.658;2022-12-29T06:44:17;4.00;;;2.35;;
74799;SDS011;63326;45.088;7.658;2022-12-29T06:46:55;5.65;;;2.65;;
74799;SDS011;63326;45.088;7.658;2022-12-29T06:49:23;8.77;;;4.20;;
74799;SDS011;63326;45.088;7.658;2022-12-29T06:51:50;5.32;;;3.15;;
74799;SDS011;63326;45.088;7.658;2022-12-29T06:54:17;9.23;;;3.55;;
74799;SDS011;63326;45.088;7.658;2022-12-29T06:56:43;2.95;;;2.05;;
74799;SDS011;63326;45.088;7.658;2022-12-29T06:59:10;7.05;;;2.85;;
74799;SDS011;63326;45.088;7.658;2022-12-29T07:01:37;4.93;;;2.50;;
74799;SDS011;63326;45.088;7.658;2022-12-29T07:04:03;5.85;;;2.58;;
74799;SDS011;63326;45.088;7.658;2022-12-29T07:06:30;2.28;;;2.00;;
74799;SDS011;63326;45.088;7.658;2022-12-29T07:08:57;7.40;;;3.97;;
74799;SDS011;63326;45.088;7.658;2022-12-29T07:11:23;6.00;;;3.05;;
74799;SDS011;63326;45.088;7.658;2022-12-29T07:13:50;3.53;;;2.65;;
74799;SDS011;63326;45.088;7.658;2022-12-29T07:16:17;8.73;;;4.82;;
74799;SDS011;63326;45.088;7.658;2022-12-29T07:18:44;3.17;;;2.20;;
74799;SDS011;63326;45.088;7.658;2022-12-29T07:21:11;2.33;;;2.00;;
74799;SDS011;63326;45.088;7.658;2022-12-29T07:23:38;2.80;;;2.42;;
74799;SDS011;63326;45.088;7.658;2022-12-29T07:26:05;4.72;;;2.35;;
74799;SDS011;63326;45.088;7.658;2022-12-29T07:28:34;2.90;;;2.53;;
74799;SDS011;63326;45.088;7.658;2022-12-29T07:31:05;3.25;;;2.92;;
74799;SDS011;63326;45.088;7.658;2022-12-29T07:33:39;4.03;;;2.58;;
74799;SDS011;63326;45.088;7.658;2022-12-29T07:36:06;7.05;;;4.05;;
74799;SDS011;63326;45.088;7.658;2022-12-29T07:38:33;4.30;;;3.00;;
74799;SDS011;63326;45.088;7.658;2022-12-29T07:41:00;4.15;;;3.05;;
74799;SDS011;63326;45.088;7.658;2022-12-29T07:43:27;6.53;;;4.05;;
74799;SDS011;63326;45.088;7.658;2022-12-29T07:46:12;4.90;;;4.40;;
74799;SDS011;63326;45.088;7.658;2022-12-29T07:49:01;5.68;;;3.50;;
74799;SDS011;63326;45.088;7.658;2022-12-29T07:51:27;4.43;;;2.95;;
74799;SDS011;63326;45.088;7.658;2022-12-29T07:53:54;8.82;;;4.18;;
74799;SDS011;63326;45.088;7.658;2022-12-29T07:56:21;3.03;;;1.58;;
74799;SDS011;63326;45.088;7.658;2022-12-29T07:58:47;5.88;;;2.95;;
74799;SDS011;63326;45.088;7.658;2022-12-29T08:01:14;3.40;;;2.45;;
74799;SDS011;63326;45.088;7.658;2022-12-29T08:03:41;4.63;;;2.97;;
74799;SDS011;63326;45.088;7.658;2022-12-29T08:06:10;8.05;;;4.32;;
74799;SDS011;63326;45.088;7.658;2022-12-29T08:08:38;4.88;;;2.90;;
74799;SDS011;63326;45.088;7.658;2022-12-29T08:11:05;8.70;;;4.57;;
74799;SDS011;63326;45.088;7.658;2022-12-29T08:13:31;6.93;;;3.70;;
74799;SDS011;63326;45.088;7.658;2022-12-29T08:15:59;10.90;;;3.85;;
74799;SDS011;63326;45.088;7.658;2022-12-29T08:18:26;8.05;;;4.63;;
74799;SDS011;63326;45.088;7.658;2022-12-29T08:20:52;5.78;;;4.03;;
74799;SDS011;63326;45.088;7.658;2022-12-29T08:23:21;5.07;;;3.60;;
74799;SDS011;63326;45.088;7.658;2022-12-29T08:25:56;10.32;;;4.43;;
74799;SDS011;63326;45.088;7.658;2022-12-29T08:28:23;6.78;;;3.13;;
74799;SDS011;63326;45.088;7.658;2022-12-29T08:30:50;6.25;;;4.25;;
74799;SDS011;63326;45.088;7.658;2022-12-29T08:33:17;7.93;;;4.13;;
74799;SDS011;63326;45.088;7.658;2022-12-29T08:35:44;5.97;;;3.65;;
74799;SDS011;63326;45.088;7.658;2022-12-29T08:38:11;9.77;;;4.40;;
74799;SDS011;63326;45.088;7.658;2022-12-29T08:40:37;5.68;;;3.85;;
74799;SDS011;63326;45.088;7.658;2022-12-29T08:43:04;11.93;;;4.45;;
74799;SDS011;63326;45.088;7.658;2022-12-29T08:45:31;7.68;;;4.38;;
74799;SDS011;63326;45.088;7.658;2022-12-29T08:47:58;6.00;;;3.75;;
74799;SDS011;63326;45.088;7.658;2022-12-29T08:50:24;8.15;;;4.53;;
74799;SDS011;63326;45.088;7.658;2022-12-29T08:52:51;8.73;;;4.57;;
74799;SDS011;63326;45.088;7.658;2022-12-29T08:55:18;10.07;;;4.18;;
74799;SDS011;63326;45.088;7.658;2022-12-29T08:57:45;8.10;;;4.53;;
74799;SDS011;63326;45.088;7.658;2022-12-29T09:00:15;6.25;;;4.10;;
74799;SDS011;63326;45.088;7.658;2022-12-29T09:02:42;5.63;;;3.72;;
74799;SDS011;63326;45.088;7.658;2022-12-29T09:05:10;6.55;;;4.15;;
74799;SDS011;63326;45.088;7.658;2022-12-29T09:07:36;8.35;;;4.80;;
74799;SDS011;63326;45.088;7.658;2022-12-29T09:10:03;6.43;;;3.67;;
74799;SDS011;63326;45.088;7.658;2022-12-29T09:12:30;6.70;;;3.97;;
74799;SDS011;63326;45.088;7.658;2022-12-29T09:15:02;9.23;;;5.18;;
74799;SDS011;63326;45.088;7.658;2022-12-29T09:17:29;8.10;;;4.88;;
74799;SDS011;63326;45.088;7.658;2022-12-29T09:20:12;11.27;;;5.18;;
74799;SDS011;63326;45.088;7.658;2022-12-29T09:22:40;8.23;;;5.07;;
74799;SDS011;63326;45.088;7.658;2022-12-29T09:25:08;10.32;;;5.38;;
74799;SDS011;63326;45.088;7.658;2022-12-29T09:27:35;6.57;;;4.38;;
74799;SDS011;63326;45.088;7.658;2022-12-29T09:30:04;9.38;;;5.55;;
74799;SDS011;63326;45.088;7.658;2022-12-29T09:32:32;7.80;;;4.47;;
74799;SDS011;63326;45.088;7.658;2022-12-29T09:35:07;8.27;;;4.80;;
74799;SDS011;63326;45.088;7.658;2022-12-29T09:37:34;10.05;;;6.35;;
74799;SDS011;63326;45.088;7.658;2022-12-29T09:40:00;9.05;;;5.45;;
74799;SDS011;63326;45.088;7.658;2022-12-29T09:45:10;8.13;;;5.40;;
74799;SDS011;63326;45.088;7.658;2022-12-29T09:52:53;7.40;;;5.20;;
74799;SDS011;63326;45.088;7.658;2022-12-29T09:55:33;9.30;;;6.28;;
74799;SDS011;63326;45.088;7.658;2022-12-29T09:58:12;11.77;;;4.97;;
74799;SDS011;63326;45.088;7.658;2022-12-29T10:03:21;7.38;;;5.05;;
74799;SDS011;63326;45.088;7.658;2022-12-29T10:05:59;13.48;;;5.25;;
74799;SDS011;63326;45.088;7.658;2022-12-29T10:14:04;6.22;;;3.97;;
74799;SDS011;63326;45.088;7.658;2022-12-29T10:16:47;9.70;;;5.97;;
74799;SDS011;63326;45.088;7.658;2022-12-29T10:24:50;7.72;;;4.43;;
74799;SDS011;63326;45.088;7.658;2022-12-29T10:27:21;7.90;;;4.13;;
74799;SDS011;63326;45.088;7.658;2022-12-29T10:29:49;7.60;;;3.83;;
74799;SDS011;63326;45.088;7.658;2022-12-29T10:34:58;7.45;;;5.28;;
74799;SDS011;63326;45.088;7.658;2022-12-29T10:40:36;9.50;;;5.25;;
74799;SDS011;63326;45.088;7.658;2022-12-29T10:43:12;6.40;;;4.70;;
74799;SDS011;63326;45.088;7.658;2022-12-29T10:46:04;15.25;;;4.40;;
74799;SDS011;63326;45.088;7.658;2022-12-29T10:48:37;11.43;;;3.95;;
74799;SDS011;63326;45.088;7.658;2022-12-29T10:51:04;7.03;;;4.60;;
74799;SDS011;63326;45.088;7.658;2022-12-29T10:53:47;10.65;;;6.05;;
74799;SDS011;63326;45.088;7.658;2022-12-29T11:01:55;10.40;;;5.78;;
74799;SDS011;63326;45.088;7.658;2022-12-29T11:07:11;13.40;;;6.20;;
74799;SDS011;63326;45.088;7.658;2022-12-29T11:09:43;8.20;;;5.25;;
74799;SDS011;63326;45.088;7.658;2022-12-29T11:17:43;9.07;;;4.93;;
74799;SDS011;63326;45.088;7.658;2022-12-29T11:20:19;12.07;;;6.32;;
74799;SDS011;63326;45.088;7.658;2022-12-29T11:22:55;12.00;;;6.35;;
74799;SDS011;63326;45.088;7.658;2022-12-29T11:25:22;10.88;;;5.07;;
74799;SDS011;63326;45.088;7.658;2022-12-29T11:28:02;14.20;;;6.20;;
74799;SDS011;63326;45.088;7.658;2022-12-29T11:30:40;15.43;;;7.00;;
74799;SDS011;63326;45.088;7.658;2022-12-29T11:33:10;13.35;;;5.72;;
74799;SDS011;63326;45.088;7.658;2022-12-29T11:38:11;9.07;;;4.43;;
74799;SDS011;63326;45.088;7.658;2022-12-29T11:40:46;13.00;;;7.10;;
74799;SDS011;63326;45.088;7.658;2022-12-29T11:43:26;9.13;;;4.53;;
74799;SDS011;63326;45.088;7.658;2022-12-29T11:46:01;10.65;;;5.85;;
74799;SDS011;63326;45.088;7.658;2022-12-29T11:48:40;10.55;;;5.68;;
74799;SDS011;63326;45.088;7.658;2022-12-29T11:51:08;13.38;;;7.47;;
74799;SDS011;63326;45.088;7.658;2022-12-29T11:53:44;8.02;;;5.18;;
74799;SDS011;63326;45.088;7.658;2022-12-29T11:56:14;11.55;;;5.65;;
74799;SDS011;63326;45.088;7.658;2022-12-29T11:58:43;9.10;;;4.60;;
74799;SDS011;63326;45.088;7.658;2022-12-29T12:03:42;14.20;;;7.40;;
74799;SDS011;63326;45.088;7.658;2022-12-29T12:06:16;11.52;;;6.75;;
74799;SDS011;63326;45.088;7.658;2022-12-29T12:08:48;13.70;;;7.38;;
74799;SDS011;63326;45.088;7.658;2022-12-29T12:11:21;12.77;;;5.80;;
74799;SDS011;63326;45.088;7.658;2022-12-29T12:20:18;15.75;;;6.45;;
74799;SDS011;63326;45.088;7.658;2022-12-29T12:22:47;12.35;;;5.82;;
74799;SDS011;63326;45.088;7.658;2022-12-29T12:25:24;12.30;;;5.55;;
74799;SDS011;63326;45.088;7.658;2022-12-29T12:30:28;8.50;;;5.07;;
74799;SDS011;63326;45.088;7.658;2022-12-29T12:33:10;9.45;;;5.53;;
74799;SDS011;63326;45.088;7.658;2022-12-29T12:42:25;11.75;;;6.38;;
74799;SDS011;63326;45.088;7.658;2022-12-29T12:55:42;14.45;;;7.80;;
74799;SDS011;63326;45.088;7.658;2022-12-29T13:10:16;12.68;;;8.18;;
74799;SDS011;63326;45.088;7.658;2022-12-29T13:13:14;14.20;;;8.98;;
74799;SDS011;63326;45.088;7.658;2022-12-29T13:16:05;14.98;;;9.57;;
74799;SDS011;63326;45.088;7.658;2022-12-29T13:24:42;13.10;;;9.18;;
74799;SDS011;63326;45.088;7.658;2022-12-29T13:30:28;12.82;;;8.45;;
74799;SDS011;63326;45.088;7.658;2022-12-29T13:38:34;12.93;;;8.05;;
74799;SDS011;63326;45.088;7.658;2022-12-29T13:41:06;13.77;;;8.50;;
74799;SDS011;63326;45.088;7.658;2022-12-29T13:43:38;16.77;;;8.05;;
74799;SDS011;63326;45.088;7.658;2022-12-29T13:46:15;11.25;;;7.18;;
74799;SDS011;63326;45.088;7.658;2022-12-29T13:48:49;11.45;;;7.85;;
74799;SDS011;63326;45.088;7.658;2022-12-29T13:51:24;12.77;;;8.05;;
74799;SDS011;63326;45.088;7.658;2022-12-29T13:59:15;11.18;;;6.63;;
74799;SDS011;63326;45.088;7.658;2022-12-29T14:01:46;10.30;;;7.05;;
74799;SDS011;63326;45.088;7.658;2022-12-29T14:04:24;12.10;;;7.47;;
74799;SDS011;63326;45.088;7.658;2022-12-29T14:07:05;10.57;;;7.57;;
74799;SDS011;63326;45.088;7.658;2022-12-29T14:09:41;11.55;;;8.00;;
74799;SDS011;63326;45.088;7.658;2022-12-29T14:12:28;14.00;;;7.95;;
74799;SDS011;63326;45.088;7.658;2022-12-29T14:17:42;16.35;;;8.80;;
74799;SDS011;63326;45.088;7.658;2022-12-29T14:23:01;12.07;;;8.60;;
74799;SDS011;63326;45.088;7.658;2022-12-29T14:28:23;17.65;;;8.48;;
74799;SDS011;63326;45.088;7.658;2022-12-29T14:30:56;13.48;;;7.22;;
74799;SDS011;63326;45.088;7.658;2022-12-29T14:33:26;14.32;;;8.48;;
74799;SDS011;63326;45.088;7.658;2022-12-29T14:36:18;14.20;;;7.20;;
74799;SDS011;63326;45.088;7.658;2022-12-29T14:44:52;15.32;;;8.35;;
74799;SDS011;63326;45.088;7.658;2022-12-29T14:50:02;14.00;;;7.10;;
74799;SDS011;63326;45.088;7.658;2022-12-29T14:52:30;14.23;;;6.97;;
74799;SDS011;63326;45.088;7.658;2022-12-29T14:57:34;12.90;;;6.43;;
74799;SDS011;63326;45.088;7.658;2022-12-29T15:00:33;12.88;;;6.07;;
74799;SDS011;63326;45.088;7.658;2022-12-29T15:08:03;15.70;;;5.95;;
74799;SDS011;63326;45.088;7.658;2022-12-29T15:10:33;13.80;;;6.57;;
74799;SDS011;63326;45.088;7.658;2022-12-29T15:13:05;9.20;;;4.85;;
74799;SDS011;63326;45.088;7.658;2022-12-29T15:15:44;10.80;;;6.47;;
74799;SDS011;63326;45.088;7.658;2022-12-29T15:20:54;13.43;;;5.45;;
74799;SDS011;63326;45.088;7.658;2022-12-29T15:28:25;9.10;;;4.50;;
74799;SDS011;63326;45.088;7.658;2022-12-29T15:30:55;11.48;;;5.45;;
74799;SDS011;63326;45.088;7.658;2022-12-29T15:33:28;15.82;;;5.85;;
74799;SDS011;63326;45.088;7.658;2022-12-29T15:35:56;11.60;;;5.80;;
74799;SDS011;63326;45.088;7.658;2022-12-29T15:38:28;8.82;;;4.85;;
74799;SDS011;63326;45.088;7.658;2022-12-29T15:41:06;11.52;;;4.38;;
74799;SDS011;63326;45.088;7.658;2022-12-29T15:46:35;7.47;;;4.60;;
74799;SDS011;63326;45.088;7.658;2022-12-29T15:49:06;9.25;;;4.80;;
74799;SDS011;63326;45.088;7.658;2022-12-29T15:51:35;10.80;;;5.70;;
74799;SDS011;63326;45.088;7.658;2022-12-29T15:54:06;15.48;;;6.50;;
74799;SDS011;63326;45.088;7.658;2022-12-29T15:56:41;11.02;;;5.40;;
74799;SDS011;63326;45.088;7.658;2022-12-29T15:59:28;9.38;;;4.68;;
74799;SDS011;63326;45.088;7.658;2022-12-29T16:01:58;9.27;;;5.03;;
74799;SDS011;63326;45.088;7.658;2022-12-29T16:04:32;9.85;;;4.47;;
74799;SDS011;63326;45.088;7.658;2022-12-29T16:07:29;7.90;;;4.63;;
74799;SDS011;63326;45.088;7.658;2022-12-29T16:10:21;8.80;;;4.78;;
74799;SDS011;63326;45.088;7.658;2022-12-29T16:12:53;7.68;;;4.70;;
74799;SDS011;63326;45.088;7.658;2022-12-29T16:15:19;8.40;;;4.13;;
74799;SDS011;63326;45.088;7.658;2022-12-29T16:17:48;11.02;;;5.30;;
74799;SDS011;63326;45.088;7.658;2022-12-29T16:20:20;7.60;;;4.65;;
74799;SDS011;63326;45.088;7.658;2022-12-29T16:22:51;8.02;;;3.13;;
74799;SDS011;63326;45.088;7.658;2022-12-29T16:25:22;11.75;;;5.15;;
74799;SDS011;63326;45.088;7.658;2022-12-29T16:27:50;11.63;;;3.85;;
74799;SDS011;63326;45.088;7.658;2022-12-29T16:30:25;8.82;;;5.13;;
74799;SDS011;63326;45.088;7.658;2022-12-29T16:33:00;6.97;;;3.33;;
74799;SDS011;63326;45.088;7.658;2022-12-29T16:35:29;6.35;;;2.97;;
74799;SDS011;63326;45.088;7.658;2022-12-29T16:40:58;7.53;;;3.72;;
74799;SDS011;63326;45.088;7.658;2022-12-29T16:43:30;11.30;;;4.45;;
74799;SDS011;63326;45.088;7.658;2022-12-29T16:51:06;6.90;;;3.80;;
74799;SDS011;63326;45.088;7.658;2022-12-29T16:53:40;10.00;;;4.13;;
74799;SDS011;63326;45.088;7.658;2022-12-29T16:56:14;8.63;;;5.25;;
74799;SDS011;63326;45.088;7.658;2022-12-29T16:58:47;8.02;;;3.78;;
74799;SDS011;63326;45.088;7.658;2022-12-29T17:01:16;6.85;;;3.55;;
74799;SDS011;63326;45.088;7.658;2022-12-29T17:03:50;10.70;;;5.15;;
74799;SDS011;63326;45.088;7.658;2022-12-29T17:06:20;8.20;;;4.10;;
74799;SDS011;63326;45.088;7.658;2022-12-29T17:08:48;8.02;;;4.20;;
74799;SDS011;63326;45.088;7.658;2022-12-29T17:17:03;14.63;;;4.13;;
74799;SDS011;63326;45.088;7.658;2022-12-29T17:19:33;7.85;;;3.70;;
74799;SDS011;63326;45.088;7.658;2022-12-29T17:22:01;10.20;;;4.13;;
74799;SDS011;63326;45.088;7.658;2022-12-29T17:24:28;9.52;;;4.00;;
74799;SDS011;63326;45.088;7.658;2022-12-29T17:26:56;10.57;;;4.65;;
74799;SDS011;63326;45.088;7.658;2022-12-29T17:29:30;9.80;;;5.93;;
74799;SDS011;63326;45.088;7.658;2022-12-29T17:34:27;6.85;;;3.33;;
74799;SDS011;63326;45.088;7.658;2022-12-29T17:39:49;6.68;;;4.18;;
74799;SDS011;63326;45.088;7.658;2022-12-29T17:42:19;8.57;;;3.65;;
74799;SDS011;63326;45.088;7.658;2022-12-29T17:44:46;11.40;;;5.35;;
74799;SDS011;63326;45.088;7.658;2022-12-29T17:47:13;11.60;;;4.50;;
74799;SDS011;63326;45.088;7.658;2022-12-29T17:49:41;8.45;;;5.50;;
74799;SDS011;63326;45.088;7.658;2022-12-29T17:52:12;11.70;;;6.15;;
74799;SDS011;63326;45.088;7.658;2022-12-29T17:57:15;9.52;;;4.22;;
74799;SDS011;63326;45.088;7.658;2022-12-29T17:59:43;5.32;;;4.55;;
74799;SDS011;63326;45.088;7.658;2022-12-29T18:02:22;9.68;;;5.20;;
74799;SDS011;63326;45.088;7.658;2022-12-29T18:04:49;11.88;;;4.95;;
74799;SDS011;63326;45.088;7.658;2022-12-29T18:07:16;20.83;;;7.45;;
74799;SDS011;63326;45.088;7.658;2022-12-29T18:09:42;10.85;;;4.55;;
74799;SDS011;63326;45.088;7.658;2022-12-29T18:12:18;13.93;;;5.15;;
74799;SDS011;63326;45.088;7.658;2022-12-29T18:14:54;9.95;;;4.88;;
74799;SDS011;63326;45.088;7.658;2022-12-29T18:17:21;10.35;;;5.03;;
74799;SDS011;63326;45.088;7.658;2022-12-29T18:19:48;10.48;;;7.35;;
74799;SDS011;63326;45.088;7.658;2022-12-29T18:22:17;8.75;;;4.50;;
74799;SDS011;63326;45.088;7.658;2022-12-29T18:24:44;11.73;;;5.50;;
74799;SDS011;63326;45.088;7.658;2022-12-29T18:27:12;18.80;;;7.25;;
74799;SDS011;63326;45.088;7.658;2022-12-29T18:29:39;8.98;;;5.00;;
74799;SDS011;63326;45.088;7.658;2022-12-29T18:32:13;6.85;;;4.40;;